aviador You're here:

K2W6 Decoded Metar

CAPT DUKE RGNL in MD, USA
Report Time2017-11-23 03:26:00
UTC Time2017-11-23 03:43:47
Flight Rules vfr VFR
Wind280° at 04 kt
W.Rank280° ranks 7
Current wind is below 280° avg. (6.8)
Visibility9999 m
Phenomena:N/A
Clouds:N/A
Expected CloudBase > 2,400 ft AGL from Temp-Dew spread
CeilingNone
Temp03°C (ISA -12)
Dew Point-3°C (65% RH)
AAT-0.8°C
QNH1022 hPa
Density Alt-1,516 ft
Elevation144 ft
Report Wrong Elevation
Raw Report
METAR K2W6 230326Z AUTO 28004KT 10SM CLR 03/M03 A3019 RMK AO1=

Extra information for K2W6:More info

Metar Taf Metar & Taf Last 4 Metars F.Rules Stats Wind Profile Meteogram Temp Stats Airport Information Weather charts Add Link Nearby VenuesMetar ALERT Operation Metar Decoded Social comments

AIRNAV info for K2W6